sensor_id;sensor_type;location;lat;lon;timestamp;P1;durP1;ratioP1;P2;durP2;ratioP2
305;SDS011;137;48.578;9.180;2022-07-10T00:00:56;4.33;;;3.20;;
305;SDS011;137;48.578;9.180;2022-07-10T00:03:23;4.10;;;3.70;;
305;SDS011;137;48.578;9.180;2022-07-10T00:05:50;6.73;;;3.50;;
305;SDS011;137;48.578;9.180;2022-07-10T00:08:17;3.67;;;3.37;;
305;SDS011;137;48.578;9.180;2022-07-10T00:10:43;3.83;;;3.07;;
305;SDS011;137;48.578;9.180;2022-07-10T00:13:12;3.07;;;2.83;;
305;SDS011;137;48.578;9.180;2022-07-10T00:15:38;3.87;;;3.57;;
305;SDS011;137;48.578;9.180;2022-07-10T00:18:05;4.53;;;3.60;;
305;SDS011;137;48.578;9.180;2022-07-10T00:20:32;4.50;;;4.10;;
305;SDS011;137;48.578;9.180;2022-07-10T00:23:00;4.00;;;3.60;;
305;SDS011;137;48.578;9.180;2022-07-10T00:25:28;3.40;;;3.10;;
305;SDS011;137;48.578;9.180;2022-07-10T00:27:55;5.53;;;4.70;;
305;SDS011;137;48.578;9.180;2022-07-10T00:30:23;4.17;;;3.70;;
305;SDS011;137;48.578;9.180;2022-07-10T00:32:50;6.10;;;3.30;;
305;SDS011;137;48.578;9.180;2022-07-10T00:35:17;3.70;;;3.40;;
305;SDS011;137;48.578;9.180;2022-07-10T00:37:44;3.10;;;2.90;;
305;SDS011;137;48.578;9.180;2022-07-10T00:40:11;3.77;;;3.30;;
305;SDS011;137;48.578;9.180;2022-07-10T00:42:38;3.17;;;2.97;;
305;SDS011;137;48.578;9.180;2022-07-10T00:45:05;3.47;;;3.17;;
305;SDS011;137;48.578;9.180;2022-07-10T00:47:34;3.07;;;2.73;;
305;SDS011;137;48.578;9.180;2022-07-10T00:50:01;3.17;;;2.87;;
305;SDS011;137;48.578;9.180;2022-07-10T00:52:28;5.50;;;2.97;;
305;SDS011;137;48.578;9.180;2022-07-10T00:54:55;2.97;;;2.70;;
305;SDS011;137;48.578;9.180;2022-07-10T00:57:23;3.33;;;3.13;;
305;SDS011;137;48.578;9.180;2022-07-10T00:59:50;3.47;;;3.20;;
305;SDS011;137;48.578;9.180;2022-07-10T01:02:18;3.60;;;3.30;;
305;SDS011;137;48.578;9.180;2022-07-10T01:04:46;4.80;;;3.37;;
305;SDS011;137;48.578;9.180;2022-07-10T01:07:13;3.70;;;2.97;;
305;SDS011;137;48.578;9.180;2022-07-10T01:09:41;2.90;;;2.70;;
305;SDS011;137;48.578;9.180;2022-07-10T01:12:08;3.30;;;3.10;;
305;SDS011;137;48.578;9.180;2022-07-10T01:14:36;3.60;;;3.00;;
305;SDS011;137;48.578;9.180;2022-07-10T01:17:05;3.87;;;2.97;;
305;SDS011;137;48.578;9.180;2022-07-10T01:19:33;3.00;;;2.80;;
305;SDS011;137;48.578;9.180;2022-07-10T01:22:02;3.60;;;3.10;;
305;SDS011;137;48.578;9.180;2022-07-10T01:24:29;3.40;;;3.17;;
305;SDS011;137;48.578;9.180;2022-07-10T01:26:55;3.83;;;3.53;;
305;SDS011;137;48.578;9.180;2022-07-10T01:29:22;3.13;;;2.80;;
305;SDS011;137;48.578;9.180;2022-07-10T01:31:49;3.80;;;3.50;;
305;SDS011;137;48.578;9.180;2022-07-10T01:34:16;3.70;;;3.40;;
305;SDS011;137;48.578;9.180;2022-07-10T01:36:43;5.60;;;3.60;;
305;SDS011;137;48.578;9.180;2022-07-10T01:39:11;4.23;;;3.00;;
305;SDS011;137;48.578;9.180;2022-07-10T01:41:38;4.33;;;3.93;;
305;SDS011;137;48.578;9.180;2022-07-10T01:44:05;3.70;;;3.40;;
305;SDS011;137;48.578;9.180;2022-07-10T01:46:32;3.87;;;3.33;;
305;SDS011;137;48.578;9.180;2022-07-10T01:48:59;4.13;;;3.70;;
305;SDS011;137;48.578;9.180;2022-07-10T01:51:26;4.10;;;3.70;;
305;SDS011;137;48.578;9.180;2022-07-10T01:53:52;5.33;;;3.77;;
305;SDS011;137;48.578;9.180;2022-07-10T01:56:21;4.50;;;3.77;;
305;SDS011;137;48.578;9.180;2022-07-10T01:58:48;4.67;;;3.07;;
305;SDS011;137;48.578;9.180;2022-07-10T02:01:15;3.40;;;3.20;;
305;SDS011;137;48.578;9.180;2022-07-10T02:03:42;3.63;;;3.27;;
305;SDS011;137;48.578;9.180;2022-07-10T02:06:35;3.83;;;3.53;;
305;SDS011;137;48.578;9.180;2022-07-10T02:09:01;3.90;;;3.00;;
305;SDS011;137;48.578;9.180;2022-07-10T02:11:30;4.17;;;2.93;;
305;SDS011;137;48.578;9.180;2022-07-10T02:13:56;4.00;;;3.70;;
305;SDS011;137;48.578;9.180;2022-07-10T02:16:23;3.23;;;3.00;;
305;SDS011;137;48.578;9.180;2022-07-10T02:18:50;3.00;;;2.80;;
305;SDS011;137;48.578;9.180;2022-07-10T02:21:17;3.77;;;3.47;;
305;SDS011;137;48.578;9.180;2022-07-10T02:23:44;4.13;;;3.10;;
305;SDS011;137;48.578;9.180;2022-07-10T02:26:10;3.57;;;3.27;;
305;SDS011;137;48.578;9.180;2022-07-10T02:28:39;4.30;;;4.00;;
305;SDS011;137;48.578;9.180;2022-07-10T02:31:05;4.57;;;3.90;;
305;SDS011;137;48.578;9.180;2022-07-10T02:33:32;5.10;;;4.10;;
305;SDS011;137;48.578;9.180;2022-07-10T02:35:59;4.23;;;3.83;;
305;SDS011;137;48.578;9.180;2022-07-10T02:38:26;4.30;;;4.00;;
305;SDS011;137;48.578;9.180;2022-07-10T02:40:53;3.90;;;3.60;;
305;SDS011;137;48.578;9.180;2022-07-10T02:43:20;5.13;;;4.10;;
305;SDS011;137;48.578;9.180;2022-07-10T02:45:48;4.77;;;4.40;;
305;SDS011;137;48.578;9.180;2022-07-10T02:48:15;4.90;;;4.40;;
305;SDS011;137;48.578;9.180;2022-07-10T02:50:43;4.40;;;4.03;;
305;SDS011;137;48.578;9.180;2022-07-10T02:53:10;5.83;;;5.33;;
305;SDS011;137;48.578;9.180;2022-07-10T02:55:36;7.40;;;6.50;;
305;SDS011;137;48.578;9.180;2022-07-10T02:58:03;8.03;;;7.27;;
305;SDS011;137;48.578;9.180;2022-07-10T03:00:30;7.13;;;6.53;;
305;SDS011;137;48.578;9.180;2022-07-10T03:02:58;8.53;;;7.83;;
305;SDS011;137;48.578;9.180;2022-07-10T03:05:25;8.90;;;8.00;;
305;SDS011;137;48.578;9.180;2022-07-10T03:07:52;8.53;;;7.80;;
305;SDS011;137;48.578;9.180;2022-07-10T03:10:19;9.80;;;8.90;;
305;SDS011;137;48.578;9.180;2022-07-10T03:12:46;8.50;;;7.67;;
305;SDS011;137;48.578;9.180;2022-07-10T03:15:13;9.60;;;8.70;;
305;SDS011;137;48.578;9.180;2022-07-10T03:17:40;10.03;;;9.13;;
305;SDS011;137;48.578;9.180;2022-07-10T03:20:09;9.40;;;8.60;;
305;SDS011;137;48.578;9.180;2022-07-10T03:22:36;9.93;;;9.03;;
305;SDS011;137;48.578;9.180;2022-07-10T03:25:04;10.97;;;9.97;;
305;SDS011;137;48.578;9.180;2022-07-10T03:27:32;9.60;;;8.70;;
305;SDS011;137;48.578;9.180;2022-07-10T03:29:58;9.67;;;8.83;;
305;SDS011;137;48.578;9.180;2022-07-10T03:32:25;12.30;;;10.40;;
305;SDS011;137;48.578;9.180;2022-07-10T03:34:52;10.23;;;9.30;;
305;SDS011;137;48.578;9.180;2022-07-10T03:37:20;10.40;;;9.53;;
305;SDS011;137;48.578;9.180;2022-07-10T03:39:47;10.60;;;9.50;;
305;SDS011;137;48.578;9.180;2022-07-10T03:42:14;12.27;;;11.13;;
305;SDS011;137;48.578;9.180;2022-07-10T03:44:41;10.00;;;9.10;;
305;SDS011;137;48.578;9.180;2022-07-10T03:47:08;11.90;;;10.77;;
305;SDS011;137;48.578;9.180;2022-07-10T03:49:35;10.03;;;9.23;;
305;SDS011;137;48.578;9.180;2022-07-10T03:52:04;10.40;;;9.43;;
305;SDS011;137;48.578;9.180;2022-07-10T03:54:33;11.60;;;9.87;;
305;SDS011;137;48.578;9.180;2022-07-10T03:57:00;10.80;;;9.70;;
305;SDS011;137;48.578;9.180;2022-07-10T03:59:44;10.60;;;9.70;;
305;SDS011;137;48.578;9.180;2022-07-10T04:02:11;9.57;;;8.67;;
305;SDS011;137;48.578;9.180;2022-07-10T04:04:38;11.53;;;9.67;;
305;SDS011;137;48.578;9.180;2022-07-10T04:07:04;10.77;;;9.87;;
305;SDS011;137;48.578;9.180;2022-07-10T04:09:33;11.10;;;10.07;;
305;SDS011;137;48.578;9.180;2022-07-10T04:11:59;8.93;;;8.13;;
305;SDS011;137;48.578;9.180;2022-07-10T04:14:26;9.60;;;8.27;;
305;SDS011;137;48.578;9.180;2022-07-10T04:16:53;10.33;;;9.43;;
305;SDS011;137;48.578;9.180;2022-07-10T04:19:20;10.27;;;9.37;;
305;SDS011;137;48.578;9.180;2022-07-10T04:21:47;12.20;;;8.80;;
305;SDS011;137;48.578;9.180;2022-07-10T04:24:14;10.80;;;8.73;;
305;SDS011;137;48.578;9.180;2022-07-10T04:26:43;8.17;;;7.47;;
305;SDS011;137;48.578;9.180;2022-07-10T04:29:10;10.20;;;9.30;;
305;SDS011;137;48.578;9.180;2022-07-10T04:31:36;9.53;;;7.70;;
305;SDS011;137;48.578;9.180;2022-07-10T04:34:03;9.77;;;8.00;;
305;SDS011;137;48.578;9.180;2022-07-10T04:36:30;8.23;;;7.50;;
305;SDS011;137;48.578;9.180;2022-07-10T04:38:57;9.87;;;8.97;;
305;SDS011;137;48.578;9.180;2022-07-10T04:41:24;7.67;;;6.97;;
305;SDS011;137;48.578;9.180;2022-07-10T04:43:52;8.97;;;8.03;;
305;SDS011;137;48.578;9.180;2022-07-10T04:46:19;8.33;;;7.63;;
305;SDS011;137;48.578;9.180;2022-07-10T04:48:46;8.67;;;7.77;;
305;SDS011;137;48.578;9.180;2022-07-10T04:51:12;8.80;;;8.10;;
305;SDS011;137;48.578;9.180;2022-07-10T04:53:39;7.50;;;6.87;;
305;SDS011;137;48.578;9.180;2022-07-10T04:56:06;8.07;;;7.27;;
305;SDS011;137;48.578;9.180;2022-07-10T04:58:33;7.33;;;6.73;;
305;SDS011;137;48.578;9.180;2022-07-10T05:01:02;6.97;;;6.37;;
305;SDS011;137;48.578;9.180;2022-07-10T05:03:29;8.13;;;7.47;;
305;SDS011;137;48.578;9.180;2022-07-10T05:05:55;6.97;;;6.47;;
305;SDS011;137;48.578;9.180;2022-07-10T05:08:22;9.87;;;6.73;;
305;SDS011;137;48.578;9.180;2022-07-10T05:10:49;7.53;;;6.93;;
305;SDS011;137;48.578;9.180;2022-07-10T05:13:16;6.73;;;6.13;;
305;SDS011;137;48.578;9.180;2022-07-10T05:15:44;8.50;;;7.60;;
305;SDS011;137;48.578;9.180;2022-07-10T05:18:13;7.00;;;6.40;;
305;SDS011;137;48.578;9.180;2022-07-10T05:20:40;7.03;;;6.33;;
305;SDS011;137;48.578;9.180;2022-07-10T05:23:08;10.33;;;6.50;;
305;SDS011;137;48.578;9.180;2022-07-10T05:25:36;6.90;;;6.30;;
305;SDS011;137;48.578;9.180;2022-07-10T05:28:04;6.77;;;6.27;;
305;SDS011;137;48.578;9.180;2022-07-10T05:30:31;6.50;;;5.30;;
305;SDS011;137;48.578;9.180;2022-07-10T05:32:58;6.33;;;4.97;;
305;SDS011;137;48.578;9.180;2022-07-10T05:35:26;6.33;;;5.33;;
305;SDS011;137;48.578;9.180;2022-07-10T05:37:53;5.00;;;4.13;;
305;SDS011;137;48.578;9.180;2022-07-10T05:40:20;5.33;;;4.83;;
305;SDS011;137;48.578;9.180;2022-07-10T05:42:47;4.67;;;4.23;;
305;SDS011;137;48.578;9.180;2022-07-10T05:45:14;5.03;;;4.60;;
305;SDS011;137;48.578;9.180;2022-07-10T05:47:40;3.80;;;3.47;;
305;SDS011;137;48.578;9.180;2022-07-10T05:50:08;6.17;;;4.13;;
305;SDS011;137;48.578;9.180;2022-07-10T05:52:36;4.83;;;3.90;;
305;SDS011;137;48.578;9.180;2022-07-10T05:55:03;4.00;;;3.60;;
305;SDS011;137;48.578;9.180;2022-07-10T05:57:31;4.37;;;3.60;;
305;SDS011;137;48.578;9.180;2022-07-10T05:59:58;4.30;;;3.70;;
305;SDS011;137;48.578;9.180;2022-07-10T06:02:25;4.47;;;3.40;;
305;SDS011;137;48.578;9.180;2022-07-10T06:04:52;5.33;;;3.97;;
305;SDS011;137;48.578;9.180;2022-07-10T06:07:19;3.77;;;3.47;;
305;SDS011;137;48.578;9.180;2022-07-10T06:09:47;4.60;;;4.20;;
305;SDS011;137;48.578;9.180;2022-07-10T06:12:14;3.67;;;3.27;;
305;SDS011;137;48.578;9.180;2022-07-10T06:14:41;4.07;;;3.17;;
305;SDS011;137;48.578;9.180;2022-07-10T06:17:08;4.40;;;3.00;;
305;SDS011;137;48.578;9.180;2022-07-10T06:19:35;4.23;;;3.73;;
305;SDS011;137;48.578;9.180;2022-07-10T06:22:02;4.17;;;3.20;;
305;SDS011;137;48.578;9.180;2022-07-10T06:24:48;3.40;;;3.10;;
305;SDS011;137;48.578;9.180;2022-07-10T06:27:15;3.27;;;2.80;;
305;SDS011;137;48.578;9.180;2022-07-10T06:29:41;6.17;;;2.80;;
305;SDS011;137;48.578;9.180;2022-07-10T06:32:08;4.67;;;2.60;;
305;SDS011;137;48.578;9.180;2022-07-10T06:34:36;3.23;;;2.93;;
305;SDS011;137;48.578;9.180;2022-07-10T06:37:03;3.37;;;2.00;;
305;SDS011;137;48.578;9.180;2022-07-10T06:39:31;3.00;;;2.20;;
305;SDS011;137;48.578;9.180;2022-07-10T06:42:01;3.40;;;2.57;;
305;SDS011;137;48.578;9.180;2022-07-10T06:44:28;3.23;;;2.30;;
305;SDS011;137;48.578;9.180;2022-07-10T06:46:55;2.60;;;2.40;;
305;SDS011;137;48.578;9.180;2022-07-10T06:49:40;3.80;;;2.00;;
305;SDS011;137;48.578;9.180;2022-07-10T06:52:07;2.87;;;2.20;;
305;SDS011;137;48.578;9.180;2022-07-10T06:54:34;2.23;;;2.03;;
305;SDS011;137;48.578;9.180;2022-07-10T06:57:03;4.07;;;2.20;;
305;SDS011;137;48.578;9.180;2022-07-10T06:59:30;2.67;;;1.93;;
305;SDS011;137;48.578;9.180;2022-07-10T07:01:57;1.90;;;1.67;;
305;SDS011;137;48.578;9.180;2022-07-10T07:04:24;2.80;;;1.70;;
305;SDS011;137;48.578;9.180;2022-07-10T07:06:50;5.07;;;1.90;;
305;SDS011;137;48.578;9.180;2022-07-10T07:09:17;2.20;;;1.87;;
305;SDS011;137;48.578;9.180;2022-07-10T07:11:44;3.10;;;2.43;;
305;SDS011;137;48.578;9.180;2022-07-10T07:14:12;4.90;;;1.70;;
305;SDS011;137;48.578;9.180;2022-07-10T07:16:39;2.20;;;1.90;;
305;SDS011;137;48.578;9.180;2022-07-10T07:19:08;4.00;;;1.40;;
305;SDS011;137;48.578;9.180;2022-07-10T07:21:36;2.20;;;1.80;;
305;SDS011;137;48.578;9.180;2022-07-10T07:24:21;3.17;;;1.43;;
305;SDS011;137;48.578;9.180;2022-07-10T07:26:48;4.07;;;2.13;;
305;SDS011;137;48.578;9.180;2022-07-10T07:29:16;2.53;;;1.40;;
305;SDS011;137;48.578;9.180;2022-07-10T07:31:44;2.40;;;1.60;;
305;SDS011;137;48.578;9.180;2022-07-10T07:34:11;4.03;;;1.97;;
305;SDS011;137;48.578;9.180;2022-07-10T07:36:37;3.70;;;1.87;;
305;SDS011;137;48.578;9.180;2022-07-10T07:39:04;3.13;;;2.10;;
305;SDS011;137;48.578;9.180;2022-07-10T07:41:31;2.80;;;2.07;;
305;SDS011;137;48.578;9.180;2022-07-10T07:43:58;2.53;;;1.60;;
305;SDS011;137;48.578;9.180;2022-07-10T07:46:26;3.30;;;1.73;;
305;SDS011;137;48.578;9.180;2022-07-10T07:48:53;2.20;;;1.87;;
305;SDS011;137;48.578;9.180;2022-07-10T07:51:20;3.60;;;2.17;;
305;SDS011;137;48.578;9.180;2022-07-10T07:53:47;3.47;;;1.63;;
305;SDS011;137;48.578;9.180;2022-07-10T07:56:14;2.03;;;1.60;;
305;SDS011;137;48.578;9.180;2022-07-10T07:58:41;2.93;;;1.50;;
305;SDS011;137;48.578;9.180;2022-07-10T08:01:08;3.13;;;1.60;;
305;SDS011;137;48.578;9.180;2022-07-10T08:03:36;5.43;;;1.80;;
305;SDS011;137;48.578;9.180;2022-07-10T08:06:03;2.03;;;1.83;;
305;SDS011;137;48.578;9.180;2022-07-10T08:08:30;1.50;;;1.40;;
305;SDS011;137;48.578;9.180;2022-07-10T08:10:57;2.67;;;1.50;;
305;SDS011;137;48.578;9.180;2022-07-10T08:13:24;1.83;;;1.40;;
305;SDS011;137;48.578;9.180;2022-07-10T08:15:51;1.80;;;1.60;;
305;SDS011;137;48.578;9.180;2022-07-10T08:18:17;2.17;;;1.80;;
305;SDS011;137;48.578;9.180;2022-07-10T08:20:45;5.13;;;1.60;;
305;SDS011;137;48.578;9.180;2022-07-10T08:23:12;3.00;;;1.40;;
305;SDS011;137;48.578;9.180;2022-07-10T08:25:39;2.37;;;2.17;;
305;SDS011;137;48.578;9.180;2022-07-10T08:28:06;3.07;;;2.30;;
305;SDS011;137;48.578;9.180;2022-07-10T08:30:35;3.10;;;1.60;;
305;SDS011;137;48.578;9.180;2022-07-10T08:33:02;2.70;;;2.07;;
305;SDS011;137;48.578;9.180;2022-07-10T08:35:29;3.40;;;2.13;;
305;SDS011;137;48.578;9.180;2022-07-10T08:37:57;3.00;;;1.90;;
305;SDS011;137;48.578;9.180;2022-07-10T08:40:25;2.10;;;1.67;;
305;SDS011;137;48.578;9.180;2022-07-10T08:42:53;3.50;;;1.83;;
305;SDS011;137;48.578;9.180;2022-07-10T08:45:20;4.17;;;1.90;;
305;SDS011;137;48.578;9.180;2022-07-10T08:47:48;2.17;;;1.70;;
305;SDS011;137;48.578;9.180;2022-07-10T08:50:17;2.57;;;1.57;;
305;SDS011;137;48.578;9.180;2022-07-10T08:52:48;2.63;;;1.97;;
305;SDS011;137;48.578;9.180;2022-07-10T08:55:22;2.60;;;1.67;;
305;SDS011;137;48.578;9.180;2022-07-10T08:57:50;2.50;;;1.70;;
305;SDS011;137;48.578;9.180;2022-07-10T09:00:17;2.53;;;1.70;;
305;SDS011;137;48.578;9.180;2022-07-10T09:02:44;2.93;;;1.70;;
305;SDS011;137;48.578;9.180;2022-07-10T09:05:11;4.30;;;1.67;;
305;SDS011;137;48.578;9.180;2022-07-10T09:07:39;2.37;;;1.60;;
305;SDS011;137;48.578;9.180;2022-07-10T09:10:09;1.90;;;1.47;;
305;SDS011;137;48.578;9.180;2022-07-10T09:12:49;2.10;;;1.60;;
305;SDS011;137;48.578;9.180;2022-07-10T09:15:19;3.53;;;1.47;;
305;SDS011;137;48.578;9.180;2022-07-10T09:17:50;1.60;;;1.43;;
305;SDS011;137;48.578;9.180;2022-07-10T09:20:25;1.80;;;1.40;;
305;SDS011;137;48.578;9.180;2022-07-10T09:22:52;5.07;;;1.70;;
305;SDS011;137;48.578;9.180;2022-07-10T09:25:19;1.67;;;1.37;;
305;SDS011;137;48.578;9.180;2022-07-10T09:27:54;2.13;;;1.47;;
305;SDS011;137;48.578;9.180;2022-07-10T09:30:31;2.20;;;1.40;;
305;SDS011;137;48.578;9.180;2022-07-10T09:33:14;1.97;;;1.40;;
305;SDS011;137;48.578;9.180;2022-07-10T09:35:56;1.63;;;1.53;;
305;SDS011;137;48.578;9.180;2022-07-10T09:38:53;3.00;;;1.33;;
305;SDS011;137;48.578;9.180;2022-07-10T09:41:25;2.90;;;1.67;;
305;SDS011;137;48.578;9.180;2022-07-10T09:43:55;3.77;;;2.27;;
305;SDS011;137;48.578;9.180;2022-07-10T09:46:24;4.60;;;1.73;;
305;SDS011;137;48.578;9.180;2022-07-10T09:51:41;2.93;;;1.43;;
305;SDS011;137;48.578;9.180;2022-07-10T09:54:09;3.57;;;1.77;;
305;SDS011;137;48.578;9.180;2022-07-10T09:56:39;3.37;;;1.60;;
305;SDS011;137;48.578;9.180;2022-07-10T09:59:10;2.83;;;2.10;;
305;SDS011;137;48.578;9.180;2022-07-10T10:01:41;2.17;;;1.60;;
305;SDS011;137;48.578;9.180;2022-07-10T10:04:11;3.10;;;1.67;;
305;SDS011;137;48.578;9.180;2022-07-10T10:06:38;1.87;;;1.40;;
305;SDS011;137;48.578;9.180;2022-07-10T10:09:07;2.30;;;1.70;;
305;SDS011;137;48.578;9.180;2022-07-10T10:11:38;2.10;;;1.40;;
305;SDS011;137;48.578;9.180;2022-07-10T10:14:09;3.57;;;1.40;;
305;SDS011;137;48.578;9.180;2022-07-10T10:16:37;4.07;;;1.33;;
305;SDS011;137;48.578;9.180;2022-07-10T10:19:05;2.47;;;1.53;;
305;SDS011;137;48.578;9.180;2022-07-10T10:21:53;1.40;;;1.30;;
305;SDS011;137;48.578;9.180;2022-07-10T10:24:20;3.63;;;1.30;;
305;SDS011;137;48.578;9.180;2022-07-10T10:26:51;3.93;;;1.40;;
305;SDS011;137;48.578;9.180;2022-07-10T10:29:21;4.20;;;1.60;;
305;SDS011;137;48.578;9.180;2022-07-10T10:31:47;2.10;;;1.30;;
305;SDS011;137;48.578;9.180;2022-07-10T10:34:16;2.60;;;1.70;;
305;SDS011;137;48.578;9.180;2022-07-10T10:37:03;3.90;;;1.73;;
305;SDS011;137;48.578;9.180;2022-07-10T10:39:32;2.60;;;1.50;;
305;SDS011;137;48.578;9.180;2022-07-10T10:42:31;3.63;;;1.73;;
305;SDS011;137;48.578;9.180;2022-07-10T10:48:00;1.80;;;1.50;;
305;SDS011;137;48.578;9.180;2022-07-10T10:50:38;1.67;;;1.27;;
305;SDS011;137;48.578;9.180;2022-07-10T10:53:16;1.73;;;1.63;;
305;SDS011;137;48.578;9.180;2022-07-10T10:58:50;2.80;;;1.60;;
305;SDS011;137;48.578;9.180;2022-07-10T11:04:13;2.67;;;1.70;;
305;SDS011;137;48.578;9.180;2022-07-10T11:06:45;2.50;;;1.40;;
305;SDS011;137;48.578;9.180;2022-07-10T11:09:22;2.57;;;1.60;;
305;SDS011;137;48.578;9.180;2022-07-10T11:12:00;1.33;;;1.20;;
305;SDS011;137;48.578;9.180;2022-07-10T11:14:28;2.07;;;1.40;;
305;SDS011;137;48.578;9.180;2022-07-10T11:16:57;2.17;;;1.47;;
305;SDS011;137;48.578;9.180;2022-07-10T11:19:25;1.70;;;1.40;;
305;SDS011;137;48.578;9.180;2022-07-10T11:21:58;2.80;;;1.50;;
305;SDS011;137;48.578;9.180;2022-07-10T11:24:40;2.27;;;1.93;;
305;SDS011;137;48.578;9.180;2022-07-10T11:30:02;1.53;;;1.43;;
305;SDS011;137;48.578;9.180;2022-07-10T11:32:31;1.83;;;1.27;;
305;SDS011;137;48.578;9.180;2022-07-10T11:35:00;3.20;;;1.20;;
305;SDS011;137;48.578;9.180;2022-07-10T11:37:26;2.27;;;1.80;;
305;SDS011;137;48.578;9.180;2022-07-10T11:40:07;4.90;;;2.00;;
305;SDS011;137;48.578;9.180;2022-07-10T11:42:48;2.40;;;1.20;;
305;SDS011;137;48.578;9.180;2022-07-10T11:45:25;1.20;;;1.10;;
305;SDS011;137;48.578;9.180;2022-07-10T11:47:55;2.07;;;1.37;;
305;SDS011;137;48.578;9.180;2022-07-10T11:50:22;2.87;;;1.33;;
305;SDS011;137;48.578;9.180;2022-07-10T11:52:50;2.27;;;1.30;;
305;SDS011;137;48.578;9.180;2022-07-10T11:55:18;1.40;;;1.20;;
305;SDS011;137;48.578;9.180;2022-07-10T11:57:46;2.17;;;1.50;;
305;SDS011;137;48.578;9.180;2022-07-10T12:00:21;2.13;;;1.40;;
305;SDS011;137;48.578;9.180;2022-07-10T12:02:49;2.23;;;1.47;;
305;SDS011;137;48.578;9.180;2022-07-10T12:05:30;1.60;;;1.50;;
305;SDS011;137;48.578;9.180;2022-07-10T12:07:58;1.98;;;1.30;;
305;SDS011;137;48.578;9.180;2022-07-10T12:10:26;1.87;;;1.30;;
305;SDS011;137;48.578;9.180;2022-07-10T12:12:52;1.90;;;1.13;;
305;SDS011;137;48.578;9.180;2022-07-10T12:15:32;1.90;;;1.47;;
305;SDS011;137;48.578;9.180;2022-07-10T12:18:00;2.23;;;1.30;;
305;SDS011;137;48.578;9.180;2022-07-10T12:20:27;2.73;;;1.60;;
305;SDS011;137;48.578;9.180;2022-07-10T12:22:55;4.33;;;1.60;;
305;SDS011;137;48.578;9.180;2022-07-10T12:25:22;1.70;;;1.43;;
305;SDS011;137;48.578;9.180;2022-07-10T12:27:54;1.70;;;1.20;;
305;SDS011;137;48.578;9.180;2022-07-10T12:30:22;2.33;;;1.10;;
305;SDS011;137;48.578;9.180;2022-07-10T12:32:49;2.47;;;1.50;;
305;SDS011;137;48.578;9.180;2022-07-10T12:35:16;1.80;;;1.17;;
305;SDS011;137;48.578;9.180;2022-07-10T12:37:47;3.60;;;1.47;;
305;SDS011;137;48.578;9.180;2022-07-10T12:43:01;4.60;;;1.20;;
305;SDS011;137;48.578;9.180;2022-07-10T12:45:28;3.10;;;1.20;;
305;SDS011;137;48.578;9.180;2022-07-10T12:47:55;1.50;;;1.03;;
305;SDS011;137;48.578;9.180;2022-07-10T12:50:22;1.53;;;1.00;;
305;SDS011;137;48.578;9.180;2022-07-10T12:52:50;1.77;;;1.07;;
305;SDS011;137;48.578;9.180;2022-07-10T12:55:38;2.43;;;1.27;;
305;SDS011;137;48.578;9.180;2022-07-10T12:58:06;3.13;;;1.00;;
305;SDS011;137;48.578;9.180;2022-07-10T13:00:42;2.83;;;1.13;;
305;SDS011;137;48.578;9.180;2022-07-10T13:03:10;1.70;;;1.13;;
305;SDS011;137;48.578;9.180;2022-07-10T13:05:43;1.70;;;1.00;;
305;SDS011;137;48.578;9.180;2022-07-10T13:08:11;1.10;;;0.90;;
305;SDS011;137;48.578;9.180;2022-07-10T13:10:43;3.20;;;1.20;;
305;SDS011;137;48.578;9.180;2022-07-10T13:13:11;3.60;;;1.80;;
305;SDS011;137;48.578;9.180;2022-07-10T13:15:38;1.37;;;1.10;;
305;SDS011;137;48.578;9.180;2022-07-10T13:18:12;1.80;;;1.10;;
305;SDS011;137;48.578;9.180;2022-07-10T13:20:40;2.07;;;1.10;;
305;SDS011;137;48.578;9.180;2022-07-10T13:23:07;2.37;;;1.37;;
305;SDS011;137;48.578;9.180;2022-07-10T13:25:34;1.83;;;1.00;;
305;SDS011;137;48.578;9.180;2022-07-10T13:28:04;3.20;;;1.20;;
305;SDS011;137;48.578;9.180;2022-07-10T13:30:31;1.73;;;0.70;;
305;SDS011;137;48.578;9.180;2022-07-10T13:32:58;2.10;;;0.90;;
305;SDS011;137;48.578;9.180;2022-07-10T13:35:27;3.20;;;1.00;;
305;SDS011;137;48.578;9.180;2022-07-10T13:37:54;2.07;;;0.90;;
305;SDS011;137;48.578;9.180;2022-07-10T13:40:24;2.37;;;1.13;;
305;SDS011;137;48.578;9.180;2022-07-10T13:42:51;3.73;;;1.30;;
305;SDS011;137;48.578;9.180;2022-07-10T13:45:20;1.53;;;1.00;;
305;SDS011;137;48.578;9.180;2022-07-10T13:47:47;1.60;;;0.90;;
305;SDS011;137;48.578;9.180;2022-07-10T13:50:13;1.50;;;1.10;;
305;SDS011;137;48.578;9.180;2022-07-10T13:52:40;3.53;;;0.90;;
305;SDS011;137;48.578;9.180;2022-07-10T13:55:07;1.67;;;1.00;;
305;SDS011;137;48.578;9.180;2022-07-10T13:57:34;3.73;;;0.97;;
305;SDS011;137;48.578;9.180;2022-07-10T14:00:01;4.97;;;1.00;;
305;SDS011;137;48.578;9.180;2022-07-10T14:02:30;2.50;;;1.07;;
305;SDS011;137;48.578;9.180;2022-07-10T14:04:57;2.73;;;0.97;;
305;SDS011;137;48.578;9.180;2022-07-10T14:07:24;1.10;;;0.80;;
305;SDS011;137;48.578;9.180;2022-07-10T14:09:51;1.40;;;0.90;;
305;SDS011;137;48.578;9.180;2022-07-10T14:12:18;1.93;;;0.90;;
305;SDS011;137;48.578;9.180;2022-07-10T14:14:46;1.37;;;0.80;;
305;SDS011;137;48.578;9.180;2022-07-10T14:17:13;4.00;;;1.03;;
305;SDS011;137;48.578;9.180;2022-07-10T14:19:41;1.97;;;1.27;;
305;SDS011;137;48.578;9.180;2022-07-10T14:22:08;1.23;;;0.80;;
305;SDS011;137;48.578;9.180;2022-07-10T14:24:35;2.37;;;0.77;;
305;SDS011;137;48.578;9.180;2022-07-10T14:27:02;1.10;;;0.70;;
305;SDS011;137;48.578;9.180;2022-07-10T14:29:29;2.27;;;1.00;;
305;SDS011;137;48.578;9.180;2022-07-10T14:31:56;2.90;;;0.97;;
305;SDS011;137;48.578;9.180;2022-07-10T14:34:23;3.43;;;1.30;;
305;SDS011;137;48.578;9.180;2022-07-10T14:36:51;2.20;;;1.00;;
305;SDS011;137;48.578;9.180;2022-07-10T14:39:18;2.10;;;0.90;;
305;SDS011;137;48.578;9.180;2022-07-10T14:41:45;1.37;;;0.90;;
305;SDS011;137;48.578;9.180;2022-07-10T14:44:12;1.70;;;0.83;;
305;SDS011;137;48.578;9.180;2022-07-10T14:46:39;1.50;;;0.90;;
305;SDS011;137;48.578;9.180;2022-07-10T14:49:08;2.13;;;0.90;;
305;SDS011;137;48.578;9.180;2022-07-10T14:51:34;1.13;;;0.87;;
305;SDS011;137;48.578;9.180;2022-07-10T14:54:03;1.50;;;1.00;;
305;SDS011;137;48.578;9.180;2022-07-10T14:56:30;1.37;;;0.80;;
305;SDS011;137;48.578;9.180;2022-07-10T14:58:57;1.93;;;1.00;;
305;SDS011;137;48.578;9.180;2022-07-10T15:01:23;3.33;;;0.90;;
305;SDS011;137;48.578;9.180;2022-07-10T15:03:50;1.60;;;0.97;;
305;SDS011;137;48.578;9.180;2022-07-10T15:06:18;7.13;;;1.83;;
305;SDS011;137;48.578;9.180;2022-07-10T15:08:44;2.60;;;0.97;;
305;SDS011;137;48.578;9.180;2022-07-10T15:11:17;1.20;;;0.90;;
305;SDS011;137;48.578;9.180;2022-07-10T15:13:46;1.77;;;1.20;;
305;SDS011;137;48.578;9.180;2022-07-10T15:16:13;2.63;;;1.20;;
305;SDS011;137;48.578;9.180;2022-07-10T15:18:40;1.77;;;1.13;;
305;SDS011;137;48.578;9.180;2022-07-10T15:21:07;3.30;;;1.07;;
305;SDS011;137;48.578;9.180;2022-07-10T15:23:34;2.37;;;1.00;;
305;SDS011;137;48.578;9.180;2022-07-10T15:26:01;3.13;;;1.00;;
305;SDS011;137;48.578;9.180;2022-07-10T15:28:30;1.50;;;0.90;;
305;SDS011;137;48.578;9.180;2022-07-10T15:30:57;2.10;;;0.90;;
305;SDS011;137;48.578;9.180;2022-07-10T15:33:24;2.60;;;1.00;;
305;SDS011;137;48.578;9.180;2022-07-10T15:35:51;1.43;;;0.87;;
305;SDS011;137;48.578;9.180;2022-07-10T15:38:17;2.00;;;0.90;;
305;SDS011;137;48.578;9.180;2022-07-10T15:40:44;1.83;;;0.80;;
305;SDS011;137;48.578;9.180;2022-07-10T15:43:11;1.53;;;0.90;;
305;SDS011;137;48.578;9.180;2022-07-10T15:45:39;1.23;;;0.80;;
305;SDS011;137;48.578;9.180;2022-07-10T15:48:06;3.80;;;1.00;;
305;SDS011;137;48.578;9.180;2022-07-10T15:50:33;2.33;;;0.93;;
305;SDS011;137;48.578;9.180;2022-07-10T15:53:00;1.80;;;0.73;;
305;SDS011;137;48.578;9.180;2022-07-10T15:55:27;2.40;;;0.80;;
305;SDS011;137;48.578;9.180;2022-07-10T15:57:54;2.53;;;2.30;;
305;SDS011;137;48.578;9.180;2022-07-10T16:00:20;2.27;;;1.00;;
305;SDS011;137;48.578;9.180;2022-07-10T16:02:49;1.90;;;1.10;;
305;SDS011;137;48.578;9.180;2022-07-10T16:05:16;2.33;;;0.80;;
305;SDS011;137;48.578;9.180;2022-07-10T16:07:43;1.40;;;0.90;;
305;SDS011;137;48.578;9.180;2022-07-10T16:10:09;1.10;;;0.80;;